Time;durP1;ratioP1;P1;durP2;ratioP2;P2;SDS_P1;SDS_P2;PMS_P1;PMS_P2;Temp;Humidity;BMP_temperature;BMP_pressure;BME280_temperature;BME280_humidity;BME280_pressure;Samples;Min_cycle;Max_cycle;Signal;HPM_P1;HPM_P2
2023/07/15 00:01:32;;;;;;;1999.90;999.90;;;;;;;30.29;36.15;100396.16;5090796;28;20551;-73
2023/07/15 00:03:58;;;;;;;1999.90;999.90;;;;;;;30.06;36.06;100393.06;5089614;28;20097;-73
2023/07/15 00:06:24;;;;;;;1999.90;999.90;;;;;;;30.21;36.15;100392.53;5090412;28;20553;-73
2023/07/15 00:08:51;;;;;;;1999.90;999.90;;;;;;;30.27;36.05;100387.38;5088836;28;20114;-72
2023/07/15 00:11:29;;;;;;;1999.90;999.90;;;;;;;30.30;35.63;100402.38;5091279;28;20034;-72
2023/07/15 00:13:59;;;;;;;1999.90;999.90;;;;;;;30.25;36.12;100405.56;5089604;28;20036;-72
2023/07/15 00:16:29;;;;;;;1999.90;999.90;;;;;;;29.89;36.41;100410.06;5089065;28;20020;-73
2023/07/15 00:18:55;;;;;;;1999.90;999.90;;;;;;;29.54;36.91;100401.72;5090737;28;20032;-72
2023/07/15 00:21:30;;;;;;;1999.90;999.90;;;;;;;29.64;36.83;100408.91;5089245;28;20043;-72
2023/07/15 00:23:55;;;;;;;1999.90;999.90;;;;;;;30.61;35.60;100404.69;5089312;28;20056;-73
2023/07/15 00:26:30;;;;;;;1999.90;999.90;;;;;;;30.96;34.91;100397.53;5089440;28;20034;-73
2023/07/15 00:28:56;;;;;;;1999.90;999.90;;;;;;;30.48;34.91;100404.25;5088729;28;20027;-72
2023/07/15 00:31:23;;;;;;;1999.90;999.90;;;;;;;30.49;35.53;100403.22;5089725;28;20119;-73
2023/07/15 00:33:48;;;;;;;1999.90;999.90;;;;;;;30.82;35.16;100403.47;5089085;28;20027;-72
2023/07/15 00:36:15;;;;;;;1999.90;999.90;;;;;;;29.82;36.21;100399.00;5088974;28;20024;-73
2023/07/15 00:38:42;;;;;;;1999.90;999.90;;;;;;;30.09;36.34;100414.31;5089076;28;20460;-73
2023/07/15 00:41:20;;;;;;;1999.90;999.90;;;;;;;30.24;35.89;100413.75;5089390;28;20067;-73
2023/07/15 00:43:56;;;;;;;1999.90;999.90;;;;;;;29.22;36.89;100424.50;5088371;28;20035;-72
2023/07/15 00:46:31;;;;;;;1999.90;999.90;;;;;;;29.66;36.72;100420.34;5089491;28;20056;-72
2023/07/15 00:49:02;;;;;;;1999.90;999.90;;;;;;;28.50;37.93;100429.38;5089891;28;20028;-73
2023/07/15 00:51:30;;;;;;;1999.90;999.90;;;;;;;29.71;36.32;100412.69;5088389;28;20123;-72
2023/07/15 00:53:56;;;;;;;1999.90;999.90;;;;;;;29.57;36.53;100412.19;5088910;28;20481;-72
2023/07/15 00:56:22;;;;;;;1999.90;999.90;;;;;;;29.15;36.97;100415.28;5088578;28;20036;-72
2023/07/15 00:58:49;;;;;;;1999.90;999.90;;;;;;;29.60;35.30;100417.25;5088651;28;20024;-72
2023/07/15 01:01:15;;;;;;;1999.90;999.90;;;;;;;29.87;34.75;100431.75;5089431;28;20069;-72
2023/07/15 01:03:40;;;;;;;1999.90;999.90;;;;;;;29.08;35.83;100438.41;5088045;28;20044;-72
2023/07/15 01:06:06;;;;;;;1999.90;999.90;;;;;;;28.51;36.91;100447.22;5089130;28;20057;-71
2023/07/15 01:08:32;;;;;;;1999.90;999.90;;;;;;;28.65;36.93;100450.50;5089300;28;20107;-72
2023/07/15 01:10:58;;;;;;;1999.90;999.90;;;;;;;28.93;36.25;100446.94;5092665;28;20122;-72
2023/07/15 01:13:23;;;;;;;1999.90;999.90;;;;;;;28.26;38.02;100460.22;5095934;28;20059;-72
2023/07/15 01:15:48;;;;;;;1999.90;999.90;;;;;;;28.28;38.46;100449.31;5095350;28;20028;-72
2023/07/15 01:18:14;;;;;;;1999.90;999.90;;;;;;;28.38;38.58;100443.94;5096251;28;20070;-72
2023/07/15 01:20:39;;;;;;;1999.90;999.90;;;;;;;29.55;36.75;100441.09;5095473;28;20502;-71
2023/07/15 01:23:05;;;;;;;1999.90;999.90;;;;;;;29.63;36.73;100440.34;5095907;28;20028;-72
2023/07/15 01:25:30;;;;;;;1999.90;999.90;;;;;;;30.12;35.97;100437.41;5094953;28;20028;-72
2023/07/15 01:27:56;;;;;;;1999.90;999.90;;;;;;;29.22;37.52;100442.47;5095242;28;20480;-72
2023/07/15 01:30:21;;;;;;;1999.90;999.90;;;;;;;29.78;36.96;100440.69;5096710;28;20024;-72
2023/07/15 01:32:47;;;;;;;1999.90;999.90;;;;;;;29.87;36.70;100438.97;5094808;28;20031;-72
2023/07/15 01:35:12;;;;;;;1999.90;999.90;;;;;;;29.39;37.76;100448.97;5096592;28;20055;-72
2023/07/15 01:37:38;;;;;;;1999.90;999.90;;;;;;;29.83;37.23;100433.03;5095233;28;20020;-71
2023/07/15 01:40:06;;;;;;;1999.90;999.90;;;;;;;30.65;36.06;100442.97;5094427;28;20081;-72
2023/07/15 01:42:32;;;;;;;1999.90;999.90;;;;;;;30.15;36.95;100447.88;5095517;28;20024;-72
2023/07/15 01:44:57;;;;;;;1999.90;999.90;;;;;;;30.09;37.07;100449.34;5094890;28;20024;-72
2023/07/15 01:47:22;;;;;;;1999.90;999.90;;;;;;;30.44;36.30;100444.16;5094592;28;20074;-72
2023/07/15 01:49:48;;;;;;;1999.90;999.90;;;;;;;30.08;37.61;100449.50;5095127;28;20024;-72
2023/07/15 01:52:14;;;;;;;1999.90;999.90;;;;;;;30.36;36.65;100450.25;5095213;28;20032;-72
2023/07/15 01:54:39;;;;;;;1999.90;999.90;;;;;;;30.46;36.55;100455.63;5094323;28;20028;-72
2023/07/15 01:57:05;;;;;;;1999.90;999.90;;;;;;;30.20;37.54;100455.50;5076120;28;20450;-72
2023/07/15 01:59:31;;;;;;;1999.90;999.90;;;;;;;29.65;37.94;100453.66;5058378;28;20036;-72
2023/07/15 02:01:59;;;;;;;1999.90;999.90;;;;;;;29.46;38.59;100452.75;5057317;28;20016;-72
2023/07/15 02:04:24;;;;;;;1999.90;999.90;;;;;;;28.97;40.01;100457.41;5058142;28;20031;-73
2023/07/15 02:06:50;;;;;;;1999.90;999.90;;;;;;;28.65;40.38;100459.41;5075115;28;20483;-72
2023/07/15 02:09:16;;;;;;;1999.90;999.90;;;;;;;29.22;40.21;100451.41;5058110;28;20032;-72
2023/07/15 02:11:42;;;;;;;1999.90;999.90;;;;;;;29.58;39.45;100453.41;5057787;28;20081;-72
2023/07/15 02:14:09;;;;;;;1999.90;999.90;;;;;;;29.00;40.38;100455.25;5057607;28;20036;-72
2023/07/15 02:16:35;;;;;;;1999.90;999.90;;;;;;;28.43;41.98;100452.44;5057999;28;20027;-72
2023/07/15 02:19:01;;;;;;;1999.90;999.90;;;;;;;29.32;40.66;100445.16;5075948;28;20028;-72
2023/07/15 02:21:26;;;;;;;1999.90;999.90;;;;;;;29.71;39.64;100445.00;5055818;28;20066;-72
2023/07/15 02:23:52;;;;;;;1999.90;999.90;;;;;;;28.52;42.58;100446.22;5054343;28;20056;-72
2023/07/15 02:26:18;;;;;;;1999.90;999.90;;;;;;;28.05;44.06;100435.28;5073046;28;20511;-72
2023/07/15 02:28:43;;;;;;;1999.90;999.90;;;;;;;29.23;41.75;100439.63;5071928;28;20171;-71
2023/07/15 02:31:09;;;;;;;1999.90;999.90;;;;;;;29.40;41.30;100437.19;5054781;28;20115;-72
2023/07/15 02:33:34;;;;;;;1999.90;999.90;;;;;;;29.14;41.93;100436.97;5054529;28;20078;-72
2023/07/15 02:36:00;;;;;;;1999.90;999.90;;;;;;;29.15;42.25;100434.13;5054149;28;20036;-72
2023/07/15 02:38:25;;;;;;;1999.90;999.90;;;;;;;28.73;43.77;100439.88;5054853;28;20070;-72
2023/07/15 02:40:51;;;;;;;1999.90;999.90;;;;;;;28.40;44.33;100444.69;5054232;28;20123;-72
2023/07/15 02:43:17;;;;;;;1999.90;999.90;;;;;;;30.00;40.94;100447.53;5054211;28;20035;-72
2023/07/15 02:45:42;;;;;;;1999.90;999.90;;;;;;;29.70;41.96;100449.50;5071654;28;20100;-72
2023/07/15 02:48:07;;;;;;;1999.90;999.90;;;;;;;29.63;41.58;100447.59;5054638;28;20178;-72
2023/07/15 02:50:36;;;;;;;1999.90;999.90;;;;;;;29.98;40.77;100446.00;5071996;28;20530;-72
2023/07/15 02:53:03;;;;;;;1999.90;999.90;;;;;;;29.87;41.22;100442.53;5054328;28;20024;-72
2023/07/15 02:55:29;;;;;;;1999.90;999.90;;;;;;;29.50;42.24;100440.69;5064351;28;20047;-71
2023/07/15 02:57:54;;;;;;;1999.90;999.90;;;;;;;29.35;42.06;100444.88;5090326;28;20028;-72
2023/07/15 03:00:19;;;;;;;1999.90;999.90;;;;;;;28.79;43.28;100447.38;5091760;28;20028;-72
2023/07/15 03:02:47;;;;;;;1999.90;999.90;;;;;;;27.51;46.02;100448.09;5092009;28;20032;-72
2023/07/15 03:05:13;;;;;;;1999.90;999.90;;;;;;;28.78;43.25;100453.72;5090636;28;20393;-72
2023/07/15 03:07:44;;;;;;;1999.90;999.90;;;;;;;29.34;42.46;100448.56;5090927;28;20383;-72
2023/07/15 03:10:13;;;;;;;1999.90;999.90;;;;;;;29.22;42.47;100456.78;5090536;28;20020;-72
2023/07/15 03:12:39;;;;;;;1999.90;999.90;;;;;;;29.13;42.94;100452.25;5090584;28;20028;-72
2023/07/15 03:15:06;;;;;;;1999.90;999.90;;;;;;;29.44;42.02;100449.34;5090981;28;20118;-72
2023/07/15 03:17:37;;;;;;;1999.90;999.90;;;;;;;29.69;41.17;100433.50;5090297;28;20031;-72
2023/07/15 03:20:19;;;;;;;1999.90;999.90;;;;;;;29.76;41.18;100440.84;5092255;28;20514;-72
2023/07/15 03:22:49;;;;;;;1999.90;999.90;;;;;;;29.23;42.04;100447.69;5090641;28;20031;-72
2023/07/15 03:25:15;;;;;;;1999.90;999.90;;;;;;;29.56;41.22;100448.16;5090337;28;20031;-72
2023/07/15 03:27:41;;;;;;;1999.90;999.90;;;;;;;29.50;40.92;100447.91;5090434;28;20111;-72
2023/07/15 03:30:07;;;;;;;1999.90;999.90;;;;;;;28.18;44.11;100449.31;5090810;28;20107;-72
2023/07/15 03:32:37;;;;;;;1999.90;999.90;;;;;;;28.73;42.81;100439.88;5090057;28;20035;-72
2023/07/15 03:35:03;;;;;;;1999.90;999.90;;;;;;;29.18;42.02;100444.63;5091029;28;20020;-72
2023/07/15 03:37:36;;;;;;;1999.90;999.90;;;;;;;29.23;42.30;100447.69;5090774;28;20039;-72
2023/07/15 03:40:07;;;;;;;1999.90;999.90;;;;;;;29.46;41.66;100452.75;5090082;28;20036;-72
2023/07/15 03:42:32;;;;;;;1999.90;999.90;;;;;;;28.60;43.67;100445.50;5090708;28;20024;-71
2023/07/15 03:44:57;;;;;;;1999.90;999.90;;;;;;;28.81;43.61;100452.59;5090334;28;20024;-72
2023/07/15 03:47:23;;;;;;;1999.90;999.90;;;;;;;29.08;42.64;100455.38;5090519;28;20077;-72
2023/07/15 03:49:48;;;;;;;1999.90;999.90;;;;;;;28.61;43.67;100447.22;5090257;28;20134;-72
2023/07/15 03:52:14;;;;;;;1999.90;999.90;;;;;;;28.90;42.84;100446.38;5089695;28;20027;-72
2023/07/15 03:54:40;;;;;;;1999.90;999.90;;;;;;;29.06;42.59;100451.16;5091247;28;20074;-72
2023/07/15 03:57:05;;;;;;;1999.90;999.90;;;;;;;29.25;42.80;100451.13;5091521;28;20111;-72
2023/07/15 03:59:31;;;;;;;1999.90;999.90;;;;;;;28.46;44.35;100454.84;5089428;28;20177;-72
2023/07/15 04:01:56;;;;;;;1999.90;999.90;;;;;;;28.74;44.09;100452.31;5089810;28;20442;-72
2023/07/15 04:04:22;;;;;;;1999.90;999.90;;;;;;;28.54;45.12;100452.31;5090273;28;20020;-72
2023/07/15 04:06:49;;;;;;;1999.90;999.90;;;;;;;28.05;46.44;100462.16;5088806;28;20028;-72
2023/07/15 04:09:16;;;;;;;1999.90;999.90;;;;;;;28.21;46.13;100467.84;5091270;28;20036;-72
2023/07/15 04:11:42;;;;;;;1999.90;999.90;;;;;;;28.61;45.47;100461.50;5090937;28;20031;-72
2023/07/15 04:14:08;;;;;;;1999.90;999.90;;;;;;;28.85;45.21;100465.63;5088960;28;20020;-72
2023/07/15 04:16:36;;;;;;;1999.90;999.90;;;;;;;29.37;44.50;100457.16;5091458;28;20169;-72
2023/07/15 04:19:01;;;;;;;1999.90;999.90;;;;;;;29.57;43.75;100467.88;5091301;28;20024;-72
2023/07/15 04:21:27;;;;;;;1999.90;999.90;;;;;;;28.97;45.04;100458.25;5089166;28;20512;-72
2023/07/15 04:23:53;;;;;;;1999.90;999.90;;;;;;;28.81;45.67;100479.50;5089230;28;20112;-73
2023/07/15 04:26:22;;;;;;;1999.90;999.90;;;;;;;28.39;46.83;100473.38;5089488;28;20023;-72
2023/07/15 04:28:55;;;;;;;1999.90;999.90;;;;;;;28.87;46.31;100482.47;5088826;28;20491;-72
2023/07/15 04:31:20;;;;;;;1999.90;999.90;;;;;;;28.58;46.91;100477.06;5089750;28;20034;-72
2023/07/15 04:33:50;;;;;;;1999.90;999.90;;;;;;;29.22;45.58;100480.13;5090386;28;20028;-72
2023/07/15 04:36:18;;;;;;;1999.90;999.90;;;;;;;28.32;47.35;100490.22;5088844;28;20472;-73
2023/07/15 04:38:43;;;;;;;1999.90;999.90;;;;;;;28.16;48.17;100490.72;5089226;28;20019;-72
2023/07/15 04:41:09;;;;;;;1999.90;999.90;;;;;;;27.79;49.12;100488.63;5089588;28;20503;-72
2023/07/15 04:43:34;;;;;;;1999.90;999.90;;;;;;;27.82;49.20;100485.66;5088351;28;20173;-72
2023/07/15 04:46:00;;;;;;;1999.90;999.90;;;;;;;28.10;48.00;100492.13;5088680;28;20139;-72
2023/07/15 04:48:26;;;;;;;1999.90;999.90;;;;;;;28.15;48.08;100489.91;5088709;28;20021;-72
2023/07/15 04:50:51;;;;;;;1999.90;999.90;;;;;;;27.90;48.19;100486.69;5089035;28;20052;-72
2023/07/15 04:53:17;;;;;;;1999.90;999.90;;;;;;;27.99;48.29;100489.53;5089535;28;20031;-72
2023/07/15 04:55:43;;;;;;;1999.90;999.90;;;;;;;27.85;48.35;100494.28;5087903;28;20362;-72
2023/07/15 04:58:09;;;;;;;1999.90;999.90;;;;;;;28.58;46.91;100490.50;5090480;28;20081;-72
2023/07/15 05:00:36;;;;;;;1999.90;999.90;;;;;;;27.79;47.80;100500.19;5088759;28;20028;-72
2023/07/15 05:03:02;;;;;;;1999.90;999.90;;;;;;;27.62;48.11;100492.78;5088469;28;20043;-72
2023/07/15 05:05:28;;;;;;;1999.90;999.90;;;;;;;28.01;47.03;100492.94;5090225;28;20372;-72
2023/07/15 05:07:54;;;;;;;1999.90;999.90;;;;;;;28.36;45.21;100491.63;5088657;28;20549;-72
2023/07/15 05:10:21;;;;;;;1999.90;999.90;;;;;;;28.53;44.36;100488.22;5088560;28;20027;-72
2023/07/15 05:12:46;;;;;;;1999.90;999.90;;;;;;;28.53;44.73;100493.59;5089798;28;20373;-71
2023/07/15 05:15:11;;;;;;;1999.90;999.90;;;;;;;28.42;44.26;100491.06;5089375;28;20090;-72
2023/07/15 05:17:37;;;;;;;1999.90;999.90;;;;;;;28.38;44.96;100500.38;5087712;28;20024;-72
2023/07/15 05:20:03;;;;;;;1999.90;999.90;;;;;;;27.91;45.89;100496.41;5089103;28;20460;-72
2023/07/15 05:22:29;;;;;;;1999.90;999.90;;;;;;;29.53;42.71;100491.53;5089236;28;20032;-72
2023/07/15 05:24:55;;;;;;;1999.90;999.90;;;;;;;29.74;42.45;100498.53;5087938;28;20035;-72
2023/07/15 05:27:20;;;;;;;1999.90;999.90;;;;;;;29.79;42.22;100490.88;5089254;28;20443;-72
2023/07/15 05:29:46;;;;;;;1999.90;999.90;;;;;;;29.17;42.43;100494.03;5088502;28;20063;-71
2023/07/15 05:32:11;;;;;;;1999.90;999.90;;;;;;;28.59;44.07;100493.06;5088249;28;20046;-72
2023/07/15 05:34:36;;;;;;;1999.90;999.90;;;;;;;28.60;42.98;100489.38;5088474;28;20024;-72
2023/07/15 05:37:02;;;;;;;1999.90;999.90;;;;;;;28.63;43.23;100499.00;5089059;28;20108;-72
2023/07/15 05:39:28;;;;;;;1999.90;999.90;;;;;;;28.26;43.77;100497.84;5088531;28;20036;-72
2023/07/15 05:41:53;;;;;;;1999.90;999.90;;;;;;;28.76;42.69;100498.75;5088128;28;20035;-72
2023/07/15 05:44:19;;;;;;;1999.90;999.90;;;;;;;28.38;44.33;100495.00;5088779;28;20027;-72
2023/07/15 05:46:44;;;;;;;1999.90;999.90;;;;;;;27.34;46.85;100495.13;5087961;28;20029;-73
2023/07/15 05:49:10;;;;;;;1999.90;999.90;;;;;;;29.33;43.15;100495.28;5088916;28;20028;-72
2023/07/15 05:51:35;;;;;;;1999.90;999.90;;;;;;;28.49;45.04;100491.34;5089698;28;20089;-72
2023/07/15 05:54:00;;;;;;;1999.90;999.90;;;;;;;28.47;45.02;100504.06;5087920;28;20045;-72
2023/07/15 05:56:26;;;;;;;1999.90;999.90;;;;;;;29.22;44.02;100502.53;5088717;28;20055;-72
2023/07/15 05:58:51;;;;;;;1999.90;999.90;;;;;;;28.42;45.76;100508.03;5090981;28;20028;-72
2023/07/15 06:01:17;;;;;;;1999.90;999.90;;;;;;;28.90;44.43;100511.75;5092490;28;20073;-72
2023/07/15 06:03:42;;;;;;;1999.90;999.90;;;;;;;28.99;44.74;100515.44;5092122;28;20135;-72
2023/07/15 06:06:09;;;;;;;1999.90;999.90;;;;;;;28.84;45.61;100504.25;5092022;28;20028;-72
2023/07/15 06:08:34;;;;;;;1999.90;999.90;;;;;;;29.35;44.40;100509.47;5091662;28;20035;-71
2023/07/15 06:11:00;;;;;;;1999.90;999.90;;;;;;;29.69;43.82;100511.59;5092401;28;20020;-72
2023/07/15 06:13:25;;;;;;;1999.90;999.90;;;;;;;30.26;42.59;100504.25;5091842;28;20027;-72
2023/07/15 06:15:51;;;;;;;1999.90;999.90;;;;;;;30.85;41.86;100503.84;5093529;28;20054;-72
2023/07/15 06:18:17;;;;;;;1999.90;999.90;;;;;;;31.59;40.42;100490.06;5092028;28;20020;-72
2023/07/15 06:20:43;;;;;;;1999.90;999.90;;;;;;;30.45;41.86;100505.16;5091406;28;20089;-71
2023/07/15 06:23:09;;;;;;;1999.90;999.90;;;;;;;29.80;42.84;100503.34;5092152;28;20020;-71
2023/07/15 06:25:37;;;;;;;1999.90;999.90;;;;;;;30.47;41.63;100510.41;5091289;28;20035;-72
2023/07/15 06:28:03;;;;;;;1999.90;999.90;;;;;;;29.46;43.34;100511.97;5091356;28;20031;-72
2023/07/15 06:30:28;;;;;;;1999.90;999.90;;;;;;;31.46;39.58;100514.75;5091978;28;20024;-72
2023/07/15 06:32:54;;;;;;;1999.90;999.90;;;;;;;31.37;36.12;100518.44;5091585;28;20036;-72
2023/07/15 06:35:20;;;;;;;1999.90;999.90;;;;;;;30.73;36.01;100516.69;5090764;28;20023;-72
2023/07/15 06:37:47;;;;;;;1999.90;999.90;;;;;;;31.45;35.35;100510.38;5091614;28;20597;-72
2023/07/15 06:40:14;;;;;;;1999.90;999.90;;;;;;;29.54;38.17;100514.78;5091584;28;20401;-72
2023/07/15 06:42:40;;;;;;;1999.90;999.90;;;;;;;29.28;39.17;100515.41;5090637;28;20032;-72
2023/07/15 06:45:06;;;;;;;1999.90;999.90;;;;;;;28.90;40.01;100517.13;5091653;28;20085;-72
2023/07/15 06:47:31;;;;;;;1999.90;999.90;;;;;;;28.65;41.09;100523.09;5091601;28;20032;-72
2023/07/15 06:49:56;;;;;;;1999.90;999.90;;;;;;;30.48;37.42;100517.50;5090536;28;20027;-72
2023/07/15 06:52:22;;;;;;;1999.90;999.90;;;;;;;30.23;38.47;100509.09;5091682;28;20028;-72
2023/07/15 06:54:47;;;;;;;1999.90;999.90;;;;;;;30.15;38.05;100512.56;5089400;28;20532;-72
2023/07/15 06:57:13;;;;;;;1999.90;999.90;;;;;;;30.05;38.22;100527.94;5054079;28;20024;-71
2023/07/15 06:59:40;;;;;;;1999.90;999.90;;;;;;;29.76;38.02;100521.66;5054220;28;20077;-72
2023/07/15 07:02:05;;;;;;;1999.90;999.90;;;;;;;29.55;37.71;100526.41;5071329;28;20024;-72
2023/07/15 07:04:31;;;;;;;1999.90;999.90;;;;;;;30.53;36.88;100521.41;5054375;28;20056;-72
2023/07/15 07:06:56;;;;;;;1999.90;999.90;;;;;;;32.06;34.52;100518.44;5053730;28;20366;-72
2023/07/15 07:09:21;;;;;;;1999.90;999.90;;;;;;;30.54;36.22;100514.16;5053212;28;20519;-72
2023/07/15 07:11:47;;;;;;;1999.90;999.90;;;;;;;31.30;34.54;100519.03;5053285;28;20487;-72
2023/07/15 07:14:12;;;;;;;1999.90;999.90;;;;;;;31.33;34.23;100519.75;5071818;28;20063;-72
2023/07/15 07:16:38;;;;;;;1999.90;999.90;;;;;;;30.82;34.57;100523.03;5053105;28;20025;-72
2023/07/15 07:19:03;;;;;;;1999.90;999.90;;;;;;;31.79;32.46;100517.66;5072149;28;20020;-72
2023/07/15 07:21:28;;;;;;;1999.90;999.90;;;;;;;31.79;33.14;100523.06;5053999;28;20477;-71
2023/07/15 07:23:55;;;;;;;1999.90;999.90;;;;;;;30.72;34.25;100524.94;5053014;28;20040;-72
2023/07/15 07:26:21;;;;;;;1999.90;999.90;;;;;;;29.91;36.12;100531.94;5053905;28;20030;-72
2023/07/15 07:28:46;;;;;;;1999.90;999.90;;;;;;;31.55;33.62;100527.28;5071359;28;20461;-72
2023/07/15 07:31:13;;;;;;;1999.90;999.90;;;;;;;29.84;36.73;100531.69;5053489;28;20798;-72
2023/07/15 07:33:42;;;;;;;1999.90;999.90;;;;;;;30.26;35.77;100536.59;5071076;28;20028;-72
2023/07/15 07:36:07;;;;;;;1999.90;999.90;;;;;;;30.74;35.93;100528.34;5053704;28;20021;-72
2023/07/15 07:38:36;;;;;;;1999.90;999.90;;;;;;;30.81;35.87;100534.81;5053075;28;20381;-72
2023/07/15 07:41:06;;;;;;;1999.90;999.90;;;;;;;31.23;35.09;100528.78;5071581;28;20028;-72
2023/07/15 07:43:36;;;;;;;1999.90;999.90;;;;;;;32.25;33.97;100526.31;5053670;28;20492;-71
2023/07/15 07:46:04;;;;;;;1999.90;999.90;;;;;;;31.61;34.15;100537.50;5052874;28;20488;-72
2023/07/15 07:48:29;;;;;;;1999.90;999.90;;;;;;;30.87;35.21;100536.03;5053496;28;20082;-72
2023/07/15 07:50:56;;;;;;;1999.90;999.90;;;;;;;30.20;36.66;100537.22;5053089;28;20025;-72
2023/07/15 07:53:22;;;;;;;1999.90;999.90;;;;;;;30.47;37.48;100538.19;5052761;28;20102;-72
2023/07/15 07:55:48;;;;;;;1999.90;999.90;;;;;;;31.73;34.45;100526.41;5068157;28;20052;-72
2023/07/15 07:58:14;;;;;;;1999.90;999.90;;;;;;;32.60;33.59;100532.47;5089953;28;20028;-71
2023/07/15 08:00:39;;;;;;;1999.90;999.90;;;;;;;32.45;33.81;100534.13;5089630;28;20484;-72
2023/07/15 08:03:05;;;;;;;1999.90;999.90;;;;;;;33.12;32.63;100535.88;5090072;28;20134;-72
2023/07/15 08:05:30;;;;;;;1999.90;999.90;;;;;;;33.28;31.79;100538.59;5089263;28;20028;-72
2023/07/15 08:07:57;;;;;;;1999.90;999.90;;;;;;;33.02;32.72;100543.34;5089182;28;20043;-72
2023/07/15 08:10:22;;;;;;;1999.90;999.90;;;;;;;34.30;31.38;100529.81;5089557;28;20434;-72
2023/07/15 08:12:48;;;;;;;1999.90;999.90;;;;;;;31.90;33.23;100539.00;5088678;28;20032;-72
2023/07/15 08:15:13;;;;;;;1999.90;999.90;;;;;;;32.44;33.02;100538.69;5089698;28;20115;-72
2023/07/15 08:17:39;;;;;;;1999.90;999.90;;;;;;;31.20;33.98;100553.41;5089292;28;20020;-72
2023/07/15 08:20:07;;;;;;;1999.90;999.90;;;;;;;32.87;32.69;100543.19;5088500;28;20034;-72
2023/07/15 08:22:36;;;;;;;1999.90;999.90;;;;;;;33.61;31.51;100562.91;5090948;28;20024;-73
2023/07/15 08:25:01;;;;;;;1999.90;999.90;;;;;;;31.66;33.08;100558.63;5089631;28;20081;-72
2023/07/15 08:27:27;;;;;;;1999.90;999.90;;;;;;;30.74;35.62;100566.94;5089907;28;20032;-73
2023/07/15 08:29:52;;;;;;;1999.90;999.90;;;;;;;31.33;33.51;100554.84;5088989;28;20114;-72
2023/07/15 08:32:17;;;;;;;1999.90;999.90;;;;;;;32.50;32.20;100553.41;5089315;28;20028;-72
2023/07/15 08:35:03;;;;;;;1999.90;999.90;;;;;;;32.28;32.68;100566.53;5088229;28;20391;-72
2023/07/15 08:37:29;;;;;;;1999.90;999.90;;;;;;;33.53;30.40;100560.22;5089450;28;20023;-72
2023/07/15 08:39:54;;;;;;;1999.90;999.90;;;;;;;32.93;31.53;100565.00;5090092;28;20032;-72
2023/07/15 08:42:20;;;;;;;1999.90;999.90;;;;;;;34.16;30.02;100561.22;5090006;28;20031;-73
2023/07/15 08:44:50;;;;;;;1999.90;999.90;;;;;;;32.81;31.61;100560.94;5089828;28;20028;-72
2023/07/15 08:47:20;;;;;;;1999.90;999.90;;;;;;;31.79;33.57;100571.69;5088947;28;20028;-72
2023/07/15 08:49:48;;;;;;;1999.90;999.90;;;;;;;33.25;31.82;100559.75;5089370;28;20052;-72
2023/07/15 08:52:17;;;;;;;1999.90;999.90;;;;;;;33.40;31.25;100562.63;5089010;28;20507;-72
2023/07/15 08:54:44;;;;;;;1999.90;999.90;;;;;;;31.07;33.75;100569.13;5087620;28;20572;-71
2023/07/15 08:57:10;;;;;;;1999.90;999.90;;;;;;;33.21;31.97;100578.19;5052422;28;20020;-72
2023/07/15 08:59:36;;;;;;;1999.90;999.90;;;;;;;32.62;31.90;100576.41;5051322;28;20467;-71
2023/07/15 09:02:01;;;;;;;1999.90;999.90;;;;;;;31.74;33.54;100579.44;5051743;28;20066;-72
2023/07/15 09:04:27;;;;;;;1999.90;999.90;;;;;;;32.75;32.16;100572.41;5052324;28;20024;-73
2023/07/15 09:06:54;;;;;;;1999.90;999.90;;;;;;;33.79;31.43;100586.28;5051486;28;20025;-72
2023/07/15 09:09:40;;;;;;;1999.90;999.90;;;;;;;32.16;33.41;100584.03;5051530;28;20036;-72
2023/07/15 09:12:09;;;;;;;1999.90;999.90;;;;;;;31.77;34.01;100589.91;5051500;28;20090;-71
2023/07/15 09:14:44;;;;;;;1999.90;999.90;;;;;;;31.20;34.67;100593.88;5051432;28;20032;-71
2023/07/15 09:17:16;;;;;;;1999.90;999.90;;;;;;;30.94;34.80;100594.63;5051551;28;20384;-72
2023/07/15 09:19:41;;;;;;;1999.90;999.90;;;;;;;31.52;34.86;100597.84;5051678;28;20443;-73
2023/07/15 09:22:08;;;;;;;1999.90;999.90;;;;;;;29.93;36.31;100590.06;5052244;28;20094;-72
2023/07/15 09:24:38;;;;;;;1999.90;999.90;;;;;;;30.42;36.58;100584.47;5051243;28;20392;-71
2023/07/15 09:27:04;;;;;;;1999.90;999.90;;;;;;;32.00;34.22;100594.75;5052126;28;20036;-72
2023/07/15 09:29:30;;;;;;;1999.90;999.90;;;;;;;31.54;33.96;100586.88;5051768;28;20027;-72
2023/07/15 09:31:56;;;;;;;1999.90;999.90;;;;;;;32.61;33.15;100582.00;5071139;28;20447;-72
2023/07/15 09:34:25;;;;;;;1999.90;999.90;;;;;;;32.09;34.67;100588.38;5055977;28;20548;-72
2023/07/15 09:36:52;;;;;;;1999.90;999.90;;;;;;;31.35;35.09;100590.63;5054618;28;20051;-72
2023/07/15 09:39:22;;;;;;;1999.90;999.90;;;;;;;31.28;35.37;100590.38;5073691;28;20025;-72
2023/07/15 09:42:03;;;;;;;1999.90;999.90;;;;;;;33.20;32.51;100595.44;5055349;28;20028;-72
2023/07/15 09:44:34;;;;;;;1999.90;999.90;;;;;;;32.48;33.32;100598.72;5054886;28;20051;-72
2023/07/15 09:47:02;;;;;;;1999.90;999.90;;;;;;;32.79;32.49;100584.59;5055569;28;20067;-72
2023/07/15 09:49:28;;;;;;;1999.90;999.90;;;;;;;32.62;32.73;100595.34;5056023;28;20413;-72
2023/07/15 09:51:54;;;;;;;1999.90;999.90;;;;;;;32.14;34.02;100594.16;5054194;28;20463;-72
2023/07/15 09:54:23;;;;;;;1999.90;999.90;;;;;;;33.04;32.16;100598.16;5055491;28;20028;-71
2023/07/15 09:56:51;;;;;;;1999.90;999.90;;;;;;;34.37;31.17;100591.50;5087278;28;20040;-72
2023/07/15 09:59:28;;;;;;;1999.90;999.90;;;;;;;33.19;33.05;100603.75;5091653;28;20035;-72
2023/07/15 10:01:58;;;;;;;1999.90;999.90;;;;;;;32.81;33.93;100601.53;5093338;28;20311;-72
2023/07/15 10:04:35;;;;;;;1999.90;999.90;;;;;;;33.10;33.28;100602.91;5092396;28;20031;-72
2023/07/15 10:07:04;;;;;;;1999.90;999.90;;;;;;;29.89;38.41;100599.44;5091724;28;20058;-72
2023/07/15 10:09:37;;;;;;;1999.90;999.90;;;;;;;31.66;35.90;100598.31;5092144;28;20031;-72
2023/07/15 10:12:04;;;;;;;1999.90;999.90;;;;;;;31.70;35.42;100599.69;5091390;28;20019;-73
2023/07/15 10:14:31;;;;;;;1999.90;999.90;;;;;;;33.47;33.45;100596.97;5092271;28;20035;-72
2023/07/15 10:17:06;;;;;;;1999.90;999.90;;;;;;;32.81;33.73;100588.81;5091207;28;20062;-72
2023/07/15 10:19:43;;;;;;;1999.90;999.90;;;;;;;30.78;37.54;100605.25;5092827;28;20028;-72
2023/07/15 10:22:10;;;;;;;1999.90;999.90;;;;;;;31.86;36.45;100596.19;5092017;28;20035;-72
2023/07/15 10:24:36;;;;;;;1999.90;999.90;;;;;;;33.07;34.28;100590.53;5091613;28;20032;-72
2023/07/15 10:27:05;;;;;;;1999.90;999.90;;;;;;;31.12;37.28;100596.53;5090686;28;20085;-72
2023/07/15 10:29:30;;;;;;;1999.90;999.90;;;;;;;30.45;38.35;100600.34;5092139;28;20016;-72
2023/07/15 10:32:16;;;;;;;1999.90;999.90;;;;;;;29.41;39.32;100595.00;5091434;28;20028;-72
2023/07/15 10:34:50;;;;;;;1999.90;999.90;;;;;;;31.09;36.62;100589.56;5091003;28;20024;-72
2023/07/15 10:37:17;;;;;;;1999.90;999.90;;;;;;;32.52;35.29;100581.16;5092859;28;20024;-72
2023/07/15 10:39:43;;;;;;;1999.90;999.90;;;;;;;32.18;35.69;100582.03;5091226;28;20073;-72
2023/07/15 10:42:14;;;;;;;1999.90;999.90;;;;;;;31.83;35.14;100578.44;5090560;28;20112;-72
2023/07/15 10:44:40;;;;;;;1999.90;999.90;;;;;;;32.68;34.72;100572.19;5090546;28;20024;-72
2023/07/15 10:47:06;;;;;;;1999.90;999.90;;;;;;;32.76;34.09;100566.84;5090756;28;20028;-72